createdAt,value
2023-02-23T06:02:24.477Z,60.03
2023-02-23T06:04:51.214Z,61.90
2023-02-23T06:07:18.221Z,58.22
2023-02-23T06:09:44.792Z,59.72
2023-02-23T06:12:12.095Z,60.53
2023-02-23T06:14:38.928Z,60.58
2023-02-23T06:17:06.708Z,56.60
2023-02-23T06:19:34.112Z,64.60
2023-02-23T06:22:01.326Z,60.13
2023-02-23T06:24:28.365Z,62.92
2023-02-23T06:26:56.447Z,60.85
2023-02-23T06:29:23.273Z,60.67
2023-02-23T06:31:50.687Z,63.28
2023-02-23T06:34:17.525Z,57.47
2023-02-23T06:36:45.285Z,57.78
2023-02-23T06:39:12.457Z,66.47
2023-02-23T06:41:39.733Z,58.38
2023-02-23T06:44:06.606Z,56.65
2023-02-23T06:46:35.002Z,59.95
2023-02-23T06:49:02.022Z,54.78
2023-02-23T06:51:29.523Z,56.20
2023-02-23T06:53:56.314Z,68.00
2023-02-23T06:56:23.613Z,63.97
2023-02-23T06:58:50.291Z,60.00
2023-02-23T07:01:19.327Z,60.38
2023-02-23T07:03:46.256Z,55.50
2023-02-23T07:06:13.710Z,54.70
2023-02-23T07:08:40.789Z,56.55
2023-02-23T07:11:10.320Z,55.95
2023-02-23T07:13:37.319Z,56.85
2023-02-23T07:16:05.090Z,49.85
2023-02-23T07:18:34.256Z,50.80
2023-02-23T07:21:01.866Z,66.20
2023-02-23T07:23:28.853Z,53.72
2023-02-23T07:25:57.482Z,53.47
2023-02-23T07:28:26.736Z,56.58
2023-02-23T07:30:57.827Z,56.22
2023-02-23T07:33:25.288Z,55.47
2023-02-23T07:35:53.755Z,56.80
2023-02-23T07:38:21.650Z,59.08
2023-02-23T07:40:52.299Z,62.28
2023-02-23T07:43:26.965Z,66.75
2023-02-23T07:46:02.350Z,67.43
2023-02-23T07:48:30.173Z,67.35
2023-02-23T07:54:06.167Z,75.10
2023-02-23T07:56:36.609Z,73.28
2023-02-23T07:59:05.551Z,69.03
2023-02-23T08:01:35.334Z,69.75
2023-02-23T08:04:03.720Z,75.93
2023-02-23T08:06:33.110Z,85.22
2023-02-23T08:09:01.615Z,86.30
2023-02-23T08:11:31.861Z,93.13
2023-02-23T08:14:00.717Z,88.25
2023-02-23T08:19:23.129Z,81.63
2023-02-23T08:24:44.816Z,90.00
2023-02-23T08:27:15.607Z,89.60
2023-02-23T08:29:42.438Z,86.78
2023-02-23T08:32:09.926Z,92.07
2023-02-23T08:34:45.251Z,93.32
2023-02-23T08:37:23.622Z,89.78
2023-02-23T08:40:25.342Z,93.32
2023-02-23T08:42:52.275Z,99.28
2023-02-23T08:45:20.089Z,96.88
2023-02-23T08:47:49.104Z,101.80
2023-02-23T08:50:17.612Z,98.65
2023-02-23T08:52:44.443Z,98.68
2023-02-23T08:55:16.734Z,100.35
2023-02-23T08:57:43.497Z,105.97
2023-02-23T09:00:17.132Z,102.93
2023-02-23T09:02:45.479Z,115.30
2023-02-23T09:05:12.690Z,96.32
2023-02-23T09:07:42.137Z,100.45
2023-02-23T09:10:12.364Z,106.45
2023-02-23T09:12:38.903Z,105.45
2023-02-23T09:15:06.270Z,94.53
2023-02-23T09:17:32.766Z,92.60
2023-02-23T09:20:00.337Z,104.63
2023-02-23T09:22:27.142Z,99.75
2023-02-23T09:24:54.353Z,103.70
2023-02-23T09:27:21.203Z,108.47
2023-02-23T09:29:53.216Z,98.43
2023-02-23T09:32:20.798Z,99.35
2023-02-23T09:34:49.631Z,96.07
2023-02-23T09:37:16.260Z,97.88
2023-02-23T09:39:43.876Z,101.85
2023-02-23T09:42:40.451Z,95.85
2023-02-23T09:45:24.513Z,95.57
2023-02-23T09:47:58.786Z,91.75
2023-02-23T09:50:30.762Z,86.30
2023-02-23T09:53:33.459Z,92.85
2023-02-23T09:56:05.771Z,89.85
2023-02-23T09:58:34.520Z,100.20
2023-02-23T10:01:47.368Z,101.53
2023-02-23T10:04:26.184Z,93.35
2023-02-23T10:07:05.137Z,101.63
2023-02-23T10:09:50.778Z,91.97
2023-02-23T10:12:22.551Z,93.80
2023-02-23T10:15:01.691Z,90.43
2023-02-23T10:17:39.130Z,97.72
2023-02-23T10:20:32.578Z,86.28
2023-02-23T10:23:15.469Z,82.72
2023-02-23T10:25:47.463Z,89.25
2023-02-23T10:28:21.446Z,96.10
2023-02-23T10:30:50.787Z,91.43
2023-02-23T10:33:31.011Z,91.25
2023-02-23T10:36:13.752Z,80.40
2023-02-23T10:38:41.131Z,86.25
2023-02-23T10:41:09.356Z,83.40
2023-02-23T10:43:36.134Z,80.72
2023-02-23T10:46:05.105Z,93.40
2023-02-23T10:48:41.092Z,78.13
2023-02-23T10:51:18.894Z,81.70
2023-02-23T10:53:45.701Z,80.53
2023-02-23T10:56:15.960Z,84.95
2023-02-23T10:58:48.648Z,88.13
2023-02-23T11:02:02.017Z,85.07
2023-02-23T11:04:32.143Z,84.80
2023-02-23T11:07:08.744Z,81.25
2023-02-23T11:09:46.552Z,75.32
2023-02-23T11:12:23.102Z,74.55
2023-02-23T11:14:54.521Z,68.15
2023-02-23T11:17:35.088Z,65.70
2023-02-23T11:20:27.280Z,63.08
2023-02-23T11:22:59.045Z,63.80
2023-02-23T11:25:30.838Z,64.93
2023-02-23T11:27:58.592Z,61.83
2023-02-23T11:30:38.391Z,57.95
2023-02-23T11:33:11.123Z,54.60
2023-02-23T11:35:39.334Z,60.80
2023-02-23T11:38:16.543Z,53.50
2023-02-23T11:41:02.869Z,56.75
2023-02-23T11:43:29.463Z,63.45
2023-02-23T11:46:00.271Z,62.10
2023-02-23T11:48:30.944Z,59.05
2023-02-23T11:50:59.066Z,59.80
2023-02-23T11:53:44.550Z,60.95
2023-02-23T11:56:12.825Z,59.15
2023-02-23T11:59:01.657Z,60.08
2023-02-23T12:01:42.018Z,58.95
2023-02-23T12:04:10.120Z,59.08
2023-02-23T12:06:40.261Z,52.85
2023-02-23T12:09:19.011Z,48.85
2023-02-23T12:12:00.756Z,51.30
2023-02-23T12:14:34.262Z,67.43
2023-02-23T12:17:16.243Z,57.15
2023-02-23T12:19:49.213Z,51.72
2023-02-23T12:22:20.996Z,56.22
2023-02-23T12:24:59.303Z,56.92
2023-02-23T12:27:50.532Z,51.90
2023-02-23T12:30:43.575Z,54.65
2023-02-23T12:33:30.336Z,53.60
2023-02-23T12:36:03.749Z,56.90
2023-02-23T12:38:49.106Z,58.10
2023-02-23T12:41:26.958Z,51.72
2023-02-23T12:43:59.896Z,59.20
2023-02-23T12:46:31.469Z,55.67
2023-02-23T12:49:05.481Z,57.97
2023-02-23T12:51:45.145Z,56.20
2023-02-23T12:54:17.631Z,54.35
2023-02-23T12:56:54.463Z,57.58
2023-02-23T12:59:25.616Z,63.65
2023-02-23T13:02:01.292Z,66.03
2023-02-23T13:04:53.898Z,58.88
2023-02-23T13:07:22.270Z,59.55
2023-02-23T13:09:55.932Z,61.45
2023-02-23T13:12:40.714Z,55.47
2023-02-23T13:15:27.248Z,53.80
2023-02-23T13:18:09.034Z,55.50
2023-02-23T13:20:49.556Z,54.75
2023-02-23T13:23:54.741Z,55.10
2023-02-23T13:26:49.882Z,57.58
2023-02-23T13:29:39.088Z,49.03
2023-02-23T13:32:16.567Z,52.10
2023-02-23T13:34:58.260Z,50.60
2023-02-23T13:37:32.154Z,50.17
2023-02-23T13:40:23.679Z,47.83
2023-02-23T13:42:53.352Z,45.28
2023-02-23T13:45:57.067Z,45.30
2023-02-23T13:48:56.637Z,49.33
2023-02-23T13:51:35.357Z,43.83
2023-02-23T13:54:06.673Z,44.90
2023-02-23T13:57:05.842Z,47.15
2023-02-23T13:59:43.538Z,45.05
2023-02-23T14:02:39.160Z,41.70
2023-02-23T14:05:26.816Z,46.17
2023-02-23T14:08:02.856Z,43.92
2023-02-23T14:10:38.586Z,41.42
2023-02-23T14:13:14.108Z,41.95
2023-02-23T14:15:43.263Z,40.20
2023-02-23T14:18:18.898Z,41.95
2023-02-23T14:21:19.460Z,42.13
2023-02-23T14:24:02.047Z,39.15
2023-02-23T14:26:29.199Z,45.40
2023-02-23T14:29:17.504Z,39.75
2023-02-23T14:31:58.997Z,38.87
2023-02-23T14:34:48.001Z,43.78
2023-02-23T14:37:19.293Z,38.75
2023-02-23T14:39:49.490Z,39.30
2023-02-23T14:42:29.947Z,43.80
2023-02-23T14:45:02.733Z,35.97
2023-02-23T14:47:29.690Z,35.05
2023-02-23T14:49:59.382Z,42.35
2023-02-23T14:52:30.120Z,35.20
2023-02-23T14:55:30.535Z,39.80
2023-02-23T14:57:58.373Z,39.13
2023-02-23T15:00:32.459Z,33.45
2023-02-23T15:03:09.536Z,32.60
2023-02-23T15:05:59.061Z,34.90
2023-02-23T15:08:29.114Z,34.42
2023-02-23T15:11:06.689Z,30.88
2023-02-23T15:16:14.869Z,38.63
2023-02-23T15:18:44.329Z,34.03
2023-02-23T15:21:16.116Z,32.22
2023-02-23T15:23:49.192Z,33.42
2023-02-23T15:26:37.693Z,30.52
2023-02-23T15:29:10.728Z,27.03
2023-02-23T15:31:40.853Z,28.23
2023-02-23T15:34:11.859Z,28.08
2023-02-23T15:36:39.917Z,28.42
2023-02-23T15:39:14.049Z,31.85
2023-02-23T15:41:43.636Z,22.65
2023-02-23T15:44:27.463Z,24.25
2023-02-23T15:47:01.794Z,22.55
2023-02-23T15:49:36.455Z,26.48
2023-02-23T15:52:24.859Z,26.75
2023-02-23T15:55:00.618Z,26.30
2023-02-23T15:57:31.485Z,24.63
2023-02-23T16:00:02.213Z,24.88
2023-02-23T16:02:36.627Z,24.17
2023-02-23T16:05:25.692Z,27.63
2023-02-23T16:08:22.900Z,28.70
2023-02-23T16:10:57.713Z,23.50
2023-02-23T16:13:24.527Z,23.10
2023-02-23T16:15:55.272Z,22.77
2023-02-23T16:18:42.675Z,21.23
2023-02-23T16:21:17.434Z,22.35
2023-02-23T16:23:49.292Z,26.02
2023-02-23T16:26:19.636Z,24.65
2023-02-23T16:28:47.153Z,29.63
2023-02-23T16:31:23.491Z,24.38
2023-02-23T16:33:57.046Z,29.02
2023-02-23T16:36:38.828Z,29.23
2023-02-23T16:39:11.810Z,31.15
2023-02-23T16:41:39.447Z,29.23
2023-02-23T16:44:07.664Z,29.10
2023-02-23T16:47:02.688Z,30.73
2023-02-23T16:49:32.596Z,32.03
2023-02-23T16:52:00.511Z,38.03
2023-02-23T16:54:28.001Z,37.35
2023-02-23T16:56:56.108Z,32.97
2023-02-23T16:59:23.387Z,38.53
2023-02-23T17:01:50.949Z,41.45
2023-02-23T17:04:20.362Z,46.75
2023-02-23T17:06:53.060Z,61.75
2023-02-23T17:09:19.609Z,43.78
2023-02-23T17:11:47.399Z,38.95
2023-02-23T17:14:27.320Z,35.13
2023-02-23T17:16:55.112Z,36.40
2023-02-23T17:19:23.619Z,32.85
2023-02-23T17:21:52.810Z,45.28
2023-02-23T17:24:19.435Z,37.50
2023-02-23T17:26:46.636Z,37.25
2023-02-23T17:29:13.204Z,39.10
2023-02-23T17:31:40.860Z,49.13
2023-02-23T17:34:07.713Z,44.25
2023-02-23T17:36:34.903Z,40.20
2023-02-23T17:39:02.413Z,36.05
2023-02-23T17:41:29.787Z,42.88
2023-02-23T17:43:56.365Z,35.38
2023-02-23T17:46:24.356Z,35.50
2023-02-23T17:48:51.122Z,40.22
2023-02-23T17:51:20.023Z,37.42
2023-02-23T17:53:46.949Z,44.85
2023-02-23T17:56:16.189Z,39.58
2023-02-23T17:58:42.766Z,44.58
2023-02-23T18:01:10.278Z,45.47
2023-02-23T18:03:37.056Z,46.35
2023-02-23T18:06:07.038Z,51.65
2023-02-23T18:11:01.513Z,54.22
2023-02-23T18:13:29.942Z,57.60
2023-02-23T18:16:09.917Z,69.23
2023-02-23T18:18:42.255Z,68.13
2023-02-23T18:21:14.888Z,68.22
2023-02-23T18:23:42.220Z,69.15
2023-02-23T18:26:12.002Z,63.15
2023-02-23T18:28:40.962Z,66.88
2023-02-23T18:31:08.322Z,67.07
2023-02-23T18:33:35.803Z,71.53
2023-02-23T18:36:04.152Z,66.30
2023-02-23T18:38:30.838Z,72.32
2023-02-23T18:40:58.946Z,78.53
2023-02-23T18:43:25.509Z,62.08
2023-02-23T18:45:52.725Z,62.95
2023-02-23T18:48:20.374Z,69.82
2023-02-23T18:50:47.673Z,69.90
2023-02-23T18:53:14.310Z,65.03
2023-02-23T18:55:41.799Z,67.03
2023-02-23T18:58:08.334Z,75.18
2023-02-23T19:00:40.437Z,76.35
2023-02-23T19:03:07.361Z,65.13
2023-02-23T19:05:36.535Z,58.55
2023-02-23T19:08:13.414Z,63.90
2023-02-23T19:10:40.981Z,56.33
2023-02-23T19:13:08.958Z,59.25
2023-02-23T19:15:36.662Z,54.97
2023-02-23T19:18:04.081Z,56.00
2023-02-23T19:20:36.035Z,60.55
2023-02-23T19:23:05.486Z,58.83
2023-02-23T19:27:59.867Z,49.80
2023-02-23T19:30:27.076Z,51.53
2023-02-23T19:32:53.921Z,47.45
2023-02-23T19:35:21.316Z,52.63
2023-02-23T19:37:50.447Z,54.28
2023-02-23T19:40:20.878Z,53.97
2023-02-23T19:42:49.457Z,51.58
2023-02-23T19:45:18.351Z,58.28
2023-02-23T19:47:45.008Z,55.53
2023-02-23T19:50:14.067Z,51.70
2023-02-23T19:52:40.666Z,58.40
2023-02-23T19:55:08.518Z,59.33
2023-02-23T19:57:35.132Z,54.65
2023-02-23T20:00:01.982Z,58.75
2023-02-23T20:02:42.355Z,58.05
2023-02-23T20:05:14.593Z,56.80
2023-02-23T20:07:42.209Z,61.90
2023-02-23T20:10:14.041Z,58.78
2023-02-23T20:12:40.623Z,69.78
2023-02-23T20:15:08.916Z,66.43
2023-02-23T20:17:36.604Z,62.28
2023-02-23T20:20:06.504Z,18.17
2023-02-23T20:25:06.207Z,15.65
2023-02-23T20:30:00.568Z,17.27
2023-02-23T20:32:27.504Z,15.15
2023-02-23T20:34:54.815Z,13.60
2023-02-23T20:37:21.362Z,16.65
2023-02-23T20:39:48.834Z,18.92
2023-02-23T20:42:15.417Z,22.98
2023-02-23T20:44:42.666Z,22.98
2023-02-23T20:47:09.816Z,18.48
2023-02-23T20:49:38.116Z,26.77
2023-02-23T20:52:05.009Z,23.17
2023-02-23T20:54:33.349Z,30.10
2023-02-23T20:57:07.206Z,31.15
2023-02-23T20:59:38.699Z,21.95
2023-02-23T21:02:06.699Z,29.35
2023-02-23T21:04:38.292Z,32.42
2023-02-23T21:07:05.582Z,25.90
2023-02-23T21:09:33.070Z,28.83
2023-02-23T21:11:59.685Z,29.80
2023-02-23T21:14:27.020Z,28.45
2023-02-23T21:16:53.629Z,22.65
2023-02-23T21:19:21.106Z,22.58
2023-02-23T21:21:50.207Z,20.52
2023-02-23T21:24:19.432Z,29.27
2023-02-23T21:26:46.552Z,27.23
2023-02-23T21:29:16.629Z,28.92
